createdAt,value
2022-08-18T00:02:43.677Z,25.36
2022-08-18T00:05:46.415Z,25.37
2022-08-18T00:08:38.450Z,25.39
2022-08-18T00:11:24.424Z,25.41
2022-08-18T00:14:21.469Z,25.41
2022-08-18T00:17:07.260Z,25.37
2022-08-18T00:19:52.399Z,25.37
2022-08-18T00:22:39.889Z,25.37
2022-08-18T00:25:28.275Z,25.34
2022-08-18T00:28:14.010Z,25.34
2022-08-18T00:30:59.944Z,25.38
2022-08-18T00:33:45.030Z,25.34
2022-08-18T00:36:32.388Z,25.39
2022-08-18T00:39:17.957Z,25.41
2022-08-18T00:42:27.292Z,25.37
2022-08-18T00:45:20.867Z,25.37
2022-08-18T00:48:09.022Z,25.33
2022-08-18T00:50:58.084Z,25.26
2022-08-18T00:53:49.496Z,25.28
2022-08-18T00:56:43.850Z,25.27
2022-08-18T00:59:42.425Z,25.31
2022-08-18T01:02:35.761Z,25.35
2022-08-18T01:05:28.155Z,25.30
2022-08-18T01:08:15.709Z,25.28
2022-08-18T01:11:02.838Z,25.29
2022-08-18T01:13:48.320Z,25.29
2022-08-18T01:16:56.938Z,25.30
2022-08-18T01:20:01.867Z,25.31
2022-08-18T01:22:49.954Z,25.30
2022-08-18T01:25:56.549Z,25.26
2022-08-18T01:28:44.581Z,25.18
2022-08-18T01:31:39.936Z,25.14
2022-08-18T01:34:39.447Z,25.11
2022-08-18T01:37:25.327Z,25.07
2022-08-18T01:41:11.080Z,25.06
2022-08-18T01:43:19.123Z,25.07
2022-08-18T01:46:05.617Z,25.10
2022-08-18T01:48:51.342Z,25.11
2022-08-18T01:51:41.293Z,25.13
2022-08-18T01:54:30.094Z,25.13
2022-08-18T01:57:16.633Z,25.11
2022-08-18T02:00:02.045Z,25.07
2022-08-18T02:03:01.946Z,25.01
2022-08-18T02:05:50.565Z,24.97
2022-08-18T02:08:37.137Z,24.94
2022-08-18T02:11:22.224Z,24.81
2022-08-18T02:14:07.430Z,24.78
2022-08-18T02:16:52.864Z,24.70
2022-08-18T02:19:46.177Z,24.68
2022-08-18T02:22:31.493Z,24.65
2022-08-18T02:25:18.016Z,24.63
2022-08-18T02:28:04.642Z,24.59
2022-08-18T02:30:50.095Z,24.58
2022-08-18T02:33:36.085Z,24.52
2022-08-18T02:36:25.513Z,24.47
2022-08-18T02:39:11.734Z,24.49
2022-08-18T02:41:57.538Z,24.37
2022-08-18T02:44:43.337Z,24.44
2022-08-18T02:47:33.433Z,24.37
2022-08-18T02:50:19.289Z,24.34
2022-08-18T02:53:04.763Z,24.27
2022-08-18T02:55:50.487Z,24.28
2022-08-18T02:58:36.339Z,24.29
2022-08-18T03:01:23.476Z,24.31
2022-08-18T03:04:23.003Z,24.36
2022-08-18T03:07:10.671Z,24.40
2022-08-18T03:09:55.852Z,24.40
2022-08-18T03:12:44.246Z,24.39
2022-08-18T03:15:29.779Z,24.37
2022-08-18T03:18:15.011Z,24.33
2022-08-18T03:21:18.485Z,24.26
2022-08-18T03:24:09.274Z,24.23
2022-08-18T03:26:57.221Z,24.25
2022-08-18T03:29:42.462Z,24.24
2022-08-18T03:32:27.707Z,24.18
2022-08-18T03:35:14.642Z,24.16
2022-08-18T03:38:00.412Z,24.18
2022-08-18T03:40:53.649Z,24.17
2022-08-18T03:43:51.424Z,24.13
2022-08-18T03:46:37.501Z,24.16
2022-08-18T03:49:23.319Z,24.16
2022-08-18T03:52:09.863Z,24.06
2022-08-18T03:54:55.382Z,24.05
2022-08-18T03:57:41.160Z,24.04
2022-08-18T04:00:29.901Z,24.01
2022-08-18T04:03:15.328Z,23.99
2022-08-18T04:06:00.891Z,23.92
2022-08-18T04:08:46.572Z,24.01
2022-08-18T04:11:35.789Z,24.02
2022-08-18T04:14:24.939Z,24.01
2022-08-18T04:17:10.710Z,24.01
2022-08-18T04:19:56.877Z,24.06
2022-08-18T04:22:42.728Z,24.12
2022-08-18T04:25:32.579Z,24.12
2022-08-18T04:28:18.273Z,24.11
2022-08-18T04:31:13.485Z,24.14
2022-08-18T04:34:00.614Z,24.19
2022-08-18T04:36:46.763Z,24.22
2022-08-18T04:39:32.327Z,24.24
2022-08-18T04:42:17.691Z,24.22
2022-08-18T04:45:04.364Z,24.23
2022-08-18T04:47:51.598Z,24.27
2022-08-18T04:50:39.280Z,24.22
2022-08-18T04:53:43.367Z,24.21
2022-08-18T04:56:33.525Z,24.25
2022-08-18T04:59:19.221Z,24.32
2022-08-18T05:02:11.491Z,24.39
2022-08-18T05:05:27.544Z,24.41
2022-08-18T05:08:12.989Z,24.42
2022-08-18T05:11:03.728Z,24.44
2022-08-18T05:13:51.386Z,24.45
2022-08-18T05:16:47.872Z,24.48
2022-08-18T05:19:35.819Z,24.49
2022-08-18T05:22:30.597Z,24.41
2022-08-18T05:25:16.239Z,24.41
2022-08-18T05:28:01.819Z,24.38
2022-08-18T05:30:47.188Z,24.34
2022-08-18T05:33:32.310Z,24.37
2022-08-18T05:36:51.809Z,24.45
2022-08-18T05:39:53.163Z,24.60
2022-08-18T05:42:40.486Z,24.67
2022-08-18T05:45:26.999Z,24.70
2022-08-18T05:48:14.056Z,24.69
2022-08-18T05:51:08.519Z,24.72
2022-08-18T05:54:13.280Z,24.75
2022-08-18T05:57:03.555Z,24.79
2022-08-18T05:59:52.282Z,24.82
2022-08-18T06:02:45.834Z,24.93
2022-08-18T06:05:34.792Z,25.02
2022-08-18T06:08:25.602Z,25.18
2022-08-18T06:11:17.126Z,25.37
2022-08-18T06:14:07.533Z,25.57
2022-08-18T06:17:15.547Z,25.66
2022-08-18T06:20:14.312Z,25.68
2022-08-18T06:23:04.603Z,25.83
2022-08-18T06:26:16.943Z,25.96
2022-08-18T06:29:25.013Z,25.97
2022-08-18T06:32:28.187Z,26.03
2022-08-18T06:35:34.561Z,26.14
2022-08-18T06:38:50.350Z,26.23
2022-08-18T06:41:43.031Z,26.25
2022-08-18T06:44:34.526Z,26.18
2022-08-18T06:47:23.104Z,26.15
2022-08-18T06:50:30.787Z,26.14
2022-08-18T06:53:26.843Z,26.15
2022-08-18T06:56:27.063Z,26.23
2022-08-18T06:59:18.529Z,26.25
2022-08-18T07:02:26.144Z,26.33
2022-08-18T07:05:14.287Z,26.42
2022-08-18T07:08:35.823Z,26.49
2022-08-18T07:11:26.560Z,26.60
2022-08-18T07:14:16.363Z,26.65
2022-08-18T07:17:12.192Z,26.61
2022-08-18T07:20:24.300Z,26.56
2022-08-18T07:23:24.126Z,26.52
2022-08-18T07:26:15.226Z,26.55
2022-08-18T07:29:14.289Z,26.60
2022-08-18T07:32:04.488Z,26.63
2022-08-18T07:34:55.211Z,26.69
2022-08-18T07:37:48.790Z,26.69
2022-08-18T07:40:51.539Z,26.77
2022-08-18T07:43:51.906Z,26.76
2022-08-18T07:47:04.694Z,26.72
2022-08-18T07:50:15.648Z,26.83
2022-08-18T07:53:26.843Z,26.98
2022-08-18T07:56:23.497Z,27.10
2022-08-18T07:59:12.179Z,27.20
2022-08-18T08:02:18.075Z,27.29
2022-08-18T08:05:10.542Z,27.29
2022-08-18T08:08:00.457Z,27.33
2022-08-18T08:11:06.717Z,27.43
2022-08-18T08:14:32.943Z,27.54
2022-08-18T08:17:24.560Z,27.60
2022-08-18T08:20:33.241Z,27.62
2022-08-18T08:23:51.022Z,27.64
2022-08-18T08:26:52.691Z,27.74
2022-08-18T08:29:53.596Z,27.80
2022-08-18T08:33:18.107Z,27.83
2022-08-18T08:36:10.588Z,27.91
2022-08-18T08:39:07.836Z,27.99
2022-08-18T08:42:30.761Z,28.10
2022-08-18T08:45:12.065Z,28.20
2022-08-18T08:48:14.474Z,28.32
2022-08-18T08:51:36.702Z,28.15
2022-08-18T08:54:43.998Z,27.88
2022-08-18T08:57:47.278Z,27.83
2022-08-18T09:00:33.443Z,27.47
2022-08-18T09:03:34.437Z,27.27
2022-08-18T09:06:30.280Z,27.18
2022-08-18T09:10:03.432Z,27.14
2022-08-18T09:13:09.771Z,27.31
2022-08-18T09:16:17.462Z,27.20
2022-08-18T09:19:27.772Z,27.52
2022-08-18T09:22:48.651Z,27.77
2022-08-18T09:25:43.609Z,27.94
2022-08-18T09:28:29.152Z,27.85
2022-08-18T09:31:19.595Z,28.34
2022-08-18T09:34:45.308Z,27.85
2022-08-18T09:38:12.749Z,28.36
2022-08-18T09:41:29.223Z,28.96
2022-08-18T09:44:48.676Z,28.94
2022-08-18T09:47:34.921Z,29.15
2022-08-18T09:50:30.264Z,29.18
2022-08-18T09:53:37.900Z,29.03
2022-08-18T09:56:54.527Z,29.26
2022-08-18T09:59:44.344Z,29.35
2022-08-18T10:02:29.681Z,29.49
2022-08-18T10:05:15.443Z,29.42
2022-08-18T10:08:03.927Z,29.44
2022-08-18T10:11:00.137Z,29.44
2022-08-18T10:14:19.934Z,29.76
2022-08-18T10:17:37.820Z,29.52
2022-08-18T10:20:42.647Z,29.25
2022-08-18T10:27:49.163Z,29.43
2022-08-18T10:30:36.483Z,29.35
2022-08-18T10:33:57.708Z,29.48
2022-08-18T10:36:53.297Z,29.66
2022-08-18T10:39:41.160Z,29.80
2022-08-18T10:42:32.460Z,29.75
2022-08-18T10:45:24.532Z,30.18
2022-08-18T10:48:26.646Z,30.51
2022-08-18T10:51:59.874Z,29.93
2022-08-18T10:55:00.673Z,30.37
2022-08-18T10:58:02.307Z,30.46
2022-08-18T11:01:06.934Z,30.48
2022-08-18T11:04:13.742Z,30.31
2022-08-18T11:07:34.179Z,29.98
2022-08-18T11:10:57.903Z,30.08
2022-08-18T11:14:20.727Z,30.05
2022-08-18T11:17:27.941Z,29.89
2022-08-18T11:20:18.275Z,30.07
2022-08-18T11:23:04.505Z,30.44
2022-08-18T11:25:49.987Z,30.46
2022-08-18T11:28:39.013Z,30.76
2022-08-18T11:31:30.901Z,30.81
2022-08-18T11:38:00.071Z,30.95
2022-08-18T11:41:09.717Z,31.05
2022-08-18T11:44:00.182Z,31.14
2022-08-18T11:46:51.715Z,30.90
2022-08-18T11:49:46.089Z,30.66
2022-08-18T11:52:34.789Z,30.87
2022-08-18T11:55:37.084Z,30.83
2022-08-18T11:58:41.550Z,31.00
2022-08-18T12:01:51.296Z,31.13
2022-08-18T12:04:42.564Z,30.91
2022-08-18T12:07:35.331Z,30.78
2022-08-18T12:10:30.544Z,30.77
2022-08-18T12:13:24.429Z,30.54
2022-08-18T12:17:38.866Z,30.48
2022-08-18T12:20:09.296Z,30.74
2022-08-18T12:22:57.655Z,31.13
2022-08-18T12:25:43.296Z,31.24
2022-08-18T12:28:28.636Z,31.67
2022-08-18T12:31:15.102Z,31.73
2022-08-18T12:34:02.729Z,31.86
2022-08-18T12:36:47.961Z,31.67
2022-08-18T12:39:33.424Z,31.61
2022-08-18T12:42:20.481Z,31.61
2022-08-18T12:45:07.254Z,31.81
2022-08-18T12:47:54.393Z,32.13
2022-08-18T12:50:49.992Z,32.43
2022-08-18T12:57:00.887Z,32.03
2022-08-18T12:59:46.430Z,32.26
2022-08-18T13:02:32.348Z,32.32
2022-08-18T13:05:26.214Z,31.93
2022-08-18T13:08:30.182Z,32.17
2022-08-18T13:11:23.786Z,32.43
2022-08-18T13:14:10.682Z,32.32
2022-08-18T13:16:56.177Z,32.36
2022-08-18T13:19:42.520Z,32.24
2022-08-18T13:22:31.960Z,32.07
2022-08-18T13:25:32.199Z,31.73
2022-08-18T13:28:26.849Z,31.72
2022-08-18T13:31:16.136Z,31.71
2022-08-18T13:34:04.084Z,31.81
2022-08-18T13:36:50.561Z,31.82
2022-08-18T13:39:36.045Z,32.11
2022-08-18T13:42:29.305Z,32.20
2022-08-18T13:45:25.675Z,32.22
2022-08-18T13:48:11.555Z,32.27
2022-08-18T13:53:17.156Z,32.20
2022-08-18T13:55:31.488Z,32.26
2022-08-18T13:58:20.830Z,32.35
2022-08-18T14:01:41.991Z,32.32
2022-08-18T14:04:15.073Z,32.24
2022-08-18T14:07:10.423Z,32.22
2022-08-18T14:09:56.977Z,32.15
2022-08-18T14:12:42.409Z,32.09
2022-08-18T14:15:28.148Z,32.18
2022-08-18T14:18:16.184Z,32.14
2022-08-18T14:21:23.277Z,32.07
2022-08-18T14:24:27.639Z,32.01
2022-08-18T14:27:14.164Z,32.11
2022-08-18T14:30:13.846Z,32.22
2022-08-18T14:32:59.772Z,32.31
2022-08-18T14:36:06.498Z,32.38
2022-08-18T14:38:51.611Z,32.27
2022-08-18T14:41:40.879Z,32.49
2022-08-18T14:44:34.995Z,32.77
2022-08-18T14:47:24.224Z,32.92
2022-08-18T14:50:12.866Z,33.18
2022-08-18T14:53:01.639Z,33.15
2022-08-18T14:55:52.665Z,33.06
2022-08-18T14:58:41.012Z,32.61
2022-08-18T15:01:27.948Z,32.46
2022-08-18T15:04:21.158Z,32.38
2022-08-18T15:07:10.103Z,31.44
2022-08-18T15:10:14.979Z,31.20
2022-08-18T15:13:02.300Z,30.90
2022-08-18T15:15:51.864Z,30.57
2022-08-18T15:18:38.149Z,30.45
2022-08-18T15:21:42.371Z,30.37
2022-08-18T15:24:46.276Z,30.28
2022-08-18T15:27:42.830Z,30.29
2022-08-18T15:30:29.115Z,30.21
2022-08-18T15:33:16.065Z,30.14
2022-08-18T15:36:09.743Z,30.10
2022-08-18T15:38:56.703Z,30.06
2022-08-18T15:41:48.867Z,30.19
2022-08-18T15:44:35.006Z,30.24
2022-08-18T15:47:21.326Z,30.25
2022-08-18T15:50:22.443Z,30.33
2022-08-18T15:53:12.627Z,30.33
2022-08-18T15:56:04.170Z,30.37
2022-08-18T15:58:50.953Z,30.41
2022-08-18T16:01:39.595Z,30.28
2022-08-18T16:04:27.661Z,30.09
2022-08-18T16:07:14.791Z,30.08
2022-08-18T16:10:04.233Z,30.09
2022-08-18T16:12:49.779Z,30.02
2022-08-18T16:15:38.675Z,30.00
2022-08-18T16:18:27.346Z,30.00
2022-08-18T16:21:16.438Z,29.93
2022-08-18T16:24:01.681Z,29.71
2022-08-18T16:26:46.812Z,29.65
2022-08-18T16:29:33.259Z,29.67
2022-08-18T16:32:18.904Z,29.53
2022-08-18T16:35:05.073Z,29.36
2022-08-18T16:37:50.837Z,29.18
2022-08-18T16:40:37.493Z,28.97
2022-08-18T16:43:22.681Z,28.49
2022-08-18T16:46:23.215Z,28.05
2022-08-18T16:49:09.733Z,28.09
2022-08-18T16:51:55.163Z,27.81
2022-08-18T16:54:40.384Z,27.74
2022-08-18T16:57:55.579Z,27.77
2022-08-18T17:00:59.819Z,27.81
2022-08-18T17:04:03.449Z,27.54
2022-08-18T17:06:49.313Z,27.10
2022-08-18T17:09:35.073Z,26.58
2022-08-18T17:12:20.516Z,25.91
2022-08-18T17:15:06.819Z,25.80
2022-08-18T17:17:52.660Z,25.88
2022-08-18T17:20:37.946Z,25.83
2022-08-18T17:23:23.119Z,25.49
2022-08-18T17:26:22.041Z,25.46
2022-08-18T17:29:15.836Z,25.30
2022-08-18T17:32:15.433Z,25.09
2022-08-18T17:35:08.005Z,24.95
2022-08-18T17:38:02.305Z,24.89
2022-08-18T17:40:54.403Z,24.70
2022-08-18T17:46:38.094Z,25.10
2022-08-18T17:49:54.406Z,24.93
2022-08-18T17:53:01.433Z,24.96
2022-08-18T17:56:09.969Z,25.02
2022-08-18T17:59:04.862Z,24.95
2022-08-18T18:02:30.615Z,24.94
2022-08-18T18:05:21.031Z,25.20
2022-08-18T18:08:17.410Z,25.34
2022-08-18T18:11:11.262Z,25.28
2022-08-18T18:14:30.299Z,24.83
2022-08-18T18:17:29.344Z,24.68
2022-08-18T18:20:43.712Z,24.84
2022-08-18T18:23:41.344Z,25.00
2022-08-18T18:26:28.679Z,25.11
2022-08-18T18:29:20.089Z,25.26
2022-08-18T18:32:22.587Z,25.04
2022-08-18T18:35:19.439Z,24.74
2022-08-18T18:38:23.673Z,24.57
2022-08-18T18:41:12.068Z,24.47
2022-08-18T18:44:09.844Z,24.65
2022-08-18T18:47:16.358Z,24.32
2022-08-18T18:50:12.563Z,24.43
2022-08-18T18:53:02.235Z,24.37
2022-08-18T18:56:19.869Z,24.49
2022-08-18T18:59:23.607Z,24.46
2022-08-18T19:02:33.543Z,24.37
2022-08-18T19:05:35.202Z,24.44
2022-08-18T19:08:24.020Z,24.52
2022-08-18T19:11:15.943Z,24.28
2022-08-18T19:14:22.120Z,24.57
2022-08-18T19:17:23.014Z,24.37
2022-08-18T19:20:31.845Z,24.15
2022-08-18T19:23:44.512Z,24.28
2022-08-18T19:26:39.935Z,24.35
2022-08-18T19:29:45.946Z,24.32
2022-08-18T19:32:36.666Z,24.23
2022-08-18T19:35:35.211Z,24.12
2022-08-18T19:38:58.979Z,24.16
2022-08-18T19:41:55.369Z,24.01
2022-08-18T19:45:14.905Z,24.10
2022-08-18T19:48:37.463Z,24.24
2022-08-18T19:51:35.685Z,24.23
2022-08-18T19:54:30.993Z,24.30
2022-08-18T19:57:23.318Z,24.15
2022-08-18T20:00:21.668Z,23.79
2022-08-18T20:03:19.583Z,23.25
2022-08-18T20:06:32.084Z,23.29
2022-08-18T20:09:35.649Z,23.51
2022-08-18T20:12:45.414Z,23.72
2022-08-18T20:15:34.782Z,23.77
2022-08-18T20:18:23.268Z,23.57
2022-08-18T20:21:14.879Z,23.52
2022-08-18T20:24:18.241Z,23.48
2022-08-18T20:27:36.066Z,23.42
2022-08-18T20:30:33.864Z,23.55
2022-08-18T20:33:25.916Z,23.59
2022-08-18T20:36:28.601Z,23.62
2022-08-18T20:39:46.139Z,23.72
2022-08-18T20:42:57.396Z,23.80
2022-08-18T20:46:06.782Z,23.88
2022-08-18T20:49:07.554Z,23.85
2022-08-18T20:52:04.078Z,23.71
2022-08-18T20:55:03.050Z,23.66
2022-08-18T20:58:03.540Z,23.53
2022-08-18T21:00:58.212Z,23.39
2022-08-18T21:03:51.178Z,23.40
2022-08-18T21:06:44.465Z,23.42
2022-08-18T21:09:33.675Z,23.08
2022-08-18T21:12:30.271Z,22.35
2022-08-18T21:15:15.899Z,21.89
2022-08-18T21:18:04.524Z,21.71
2022-08-18T21:20:52.806Z,21.55
2022-08-18T21:23:41.157Z,21.29
2022-08-18T21:26:29.234Z,21.09
2022-08-18T21:29:15.633Z,20.98
2022-08-18T21:32:12.941Z,20.91
2022-08-18T21:35:05.907Z,20.97
2022-08-18T21:38:03.964Z,21.05
2022-08-18T21:40:50.118Z,21.17
2022-08-18T21:43:49.021Z,21.26
2022-08-18T21:46:38.994Z,21.32
2022-08-18T21:49:27.584Z,21.40
2022-08-18T21:52:24.011Z,21.47
2022-08-18T21:55:25.140Z,21.59
2022-08-18T21:58:19.478Z,21.59
2022-08-18T22:01:30.150Z,21.69
2022-08-18T22:04:30.095Z,21.76
2022-08-18T22:07:34.492Z,21.76
2022-08-18T22:10:48.333Z,21.86
2022-08-18T22:13:59.250Z,21.89
2022-08-18T22:16:45.997Z,21.94
2022-08-18T22:19:31.652Z,21.99
2022-08-18T22:22:38.104Z,21.91
2022-08-18T22:25:23.824Z,21.98
2022-08-18T22:28:09.138Z,22.05
2022-08-18T22:30:54.399Z,22.07
2022-08-18T22:33:40.399Z,22.08
2022-08-18T22:36:28.309Z,22.13
2022-08-18T22:39:22.561Z,22.10
2022-08-18T22:42:09.534Z,22.13
2022-08-18T22:44:57.140Z,22.10
2022-08-18T22:47:45.519Z,22.16
2022-08-18T22:50:31.190Z,22.21
2022-08-18T22:53:19.852Z,22.21
2022-08-18T22:56:05.960Z,22.21
2022-08-18T22:58:53.113Z,22.17
2022-08-18T23:01:39.590Z,22.17
2022-08-18T23:04:25.720Z,22.09
2022-08-18T23:07:12.284Z,22.10
2022-08-18T23:09:58.812Z,22.06
2022-08-18T23:12:46.983Z,22.00
2022-08-18T23:15:43.731Z,21.99
2022-08-18T23:18:32.845Z,22.07
2022-08-18T23:21:33.564Z,22.15
2022-08-18T23:24:21.859Z,22.16
2022-08-18T23:27:10.061Z,22.26
2022-08-18T23:29:55.409Z,22.20
2022-08-18T23:32:40.857Z,22.15
2022-08-18T23:35:26.432Z,22.01
2022-08-18T23:38:13.151Z,22.05
2022-08-18T23:40:58.715Z,22.18
2022-08-18T23:43:48.111Z,22.14
2022-08-18T23:46:34.008Z,22.14
2022-08-18T23:49:19.681Z,22.26
2022-08-18T23:52:05.614Z,22.29
2022-08-18T23:54:51.063Z,22.20
2022-08-18T23:57:36.674Z,22.22
